Time;durP1;ratioP1;P1;durP2;ratioP2;P2;SDS_P1;SDS_P2;PMS_P1;PMS_P2;Temp;Humidity;BMP_temperature;BMP_pressure;BME280_temperature;BME280_humidity;BME280_pressure;Samples;Min_cycle;Max_cycle;Signal;HPM_P1;HPM_P2
2022/05/11 00:00:08;;;;;;;;;;;13.90;99.90;;;;;;5055243;28;19963;-77
2022/05/11 00:02:37;;;;;;;;;;;13.90;99.90;;;;;;5057461;28;19951;-77
2022/05/11 00:05:04;;;;;;;;;;;13.90;99.90;;;;;;5056441;28;20444;-77
2022/05/11 00:07:29;;;;;;;;;;;13.90;99.90;;;;;;5056663;28;19936;-76
2022/05/11 00:09:55;;;;;;;;;;;13.90;99.90;;;;;;5056131;28;19924;-77
2022/05/11 00:12:20;;;;;;;;;;;13.90;99.90;;;;;;5055673;28;20406;-77
2022/05/11 00:14:46;;;;;;;;;;;13.90;99.90;;;;;;5056130;28;19956;-76
2022/05/11 00:17:13;;;;;;;;;;;13.90;99.90;;;;;;5055960;28;19963;-76
2022/05/11 00:19:39;;;;;;;;;;;13.90;99.90;;;;;;5039586;28;19979;-76
2022/05/11 00:22:04;;;;;;;;;;;13.90;99.90;;;;;;5052822;28;19925;-77
2022/05/11 00:24:30;;;;;;;;;;;13.90;99.90;;;;;;5056062;28;19924;-77
2022/05/11 00:26:56;;;;;;;;;;;13.90;99.90;;;;;;5055341;28;20526;-76
2022/05/11 00:29:21;;;;;;;;;;;13.90;99.90;;;;;;5054791;28;19925;-76
2022/05/11 00:31:47;;;;;;;;;;;13.90;99.90;;;;;;5037243;28;19932;-77
2022/05/11 00:34:14;;;;;;;;;;;13.90;99.90;;;;;;5055831;28;19928;-77
2022/05/11 00:36:40;;;;;;;;;;;13.90;99.90;;;;;;5039217;28;19935;-76
2022/05/11 00:39:05;;;;;;;;;;;13.90;99.90;;;;;;5046948;28;20298;-76
2022/05/11 00:41:31;;;;;;;;;;;13.90;99.90;;;;;;5056823;28;19921;-76
2022/05/11 00:43:57;;;;;;;;;;;13.90;99.90;;;;;;5054499;28;19975;-77
2022/05/11 00:46:25;;;;;;;;;;;13.90;99.90;;;;;;5055106;28;19924;-76
2022/05/11 00:51:40;;;;;;;;;;;13.90;99.90;;;;;;5055917;28;19921;-74
2022/05/11 00:54:07;;;;;;;;;;;13.90;99.90;;;;;;5055766;28;19928;-75
2022/05/11 00:56:34;;;;;;;;;;;13.80;99.90;;;;;;5056240;28;19928;-75
2022/05/11 00:59:02;;;;;;;;;;;13.80;99.90;;;;;;5055637;28;19959;-75
2022/05/11 01:01:28;;;;;;;;;;;13.80;99.90;;;;;;5053464;28;20448;-76
2022/05/11 01:04:00;;;;;;;;;;;13.80;99.90;;;;;;5055712;28;19921;-76
2022/05/11 01:06:26;;;;;;;;;;;13.80;99.90;;;;;;5048435;28;19970;-74
2022/05/11 01:08:53;;;;;;;;;;;13.80;99.90;;;;;;5052594;28;19995;-75
2022/05/11 01:11:19;;;;;;;;;;;13.80;99.90;;;;;;5052493;28;19956;-75
2022/05/11 01:13:45;;;;;;;;;;;13.70;99.90;;;;;;5053463;28;20334;-76
2022/05/11 01:16:10;;;;;;;;;;;13.80;99.90;;;;;;5049975;28;19931;-76
2022/05/11 01:18:38;;;;;;;;;;;13.80;99.90;;;;;;5052697;28;20382;-75
2022/05/11 01:21:04;;;;;;;;;;;13.80;99.90;;;;;;5052437;28;19927;-75
2022/05/11 01:23:33;;;;;;;;;;;13.80;99.90;;;;;;5053125;28;20378;-76
2022/05/11 01:25:59;;;;;;;;;;;13.80;99.90;;;;;;5051326;28;19999;-76
2022/05/11 01:28:25;;;;;;;;;;;13.80;99.90;;;;;;5053812;28;20436;-76
2022/05/11 01:30:52;;;;;;;;;;;13.80;99.90;;;;;;5052455;28;19924;-76
2022/05/11 01:33:19;;;;;;;;;;;13.80;99.90;;;;;;5051350;28;19924;-75
2022/05/11 01:35:49;;;;;;;;;;;13.80;99.90;;;;;;5053414;28;19920;-75
2022/05/11 01:38:19;;;;;;;;;;;13.80;99.90;;;;;;5052458;28;19999;-75
2022/05/11 01:40:44;;;;;;;;;;;13.80;99.90;;;;;;5033227;28;19952;-77
2022/05/11 01:43:15;;;;;;;;;;;13.80;99.90;;;;;;5052615;28;19975;-75
2022/05/11 01:45:40;;;;;;;;;;;13.80;99.90;;;;;;5049891;28;20398;-77
2022/05/11 01:48:06;;;;;;;;;;;13.70;99.90;;;;;;5051947;28;19924;-76
2022/05/11 01:50:32;;;;;;;;;;;13.70;99.90;;;;;;5052031;28;20424;-77
2022/05/11 01:52:57;;;;;;;;;;;13.70;99.90;;;;;;5052521;28;20394;-76
2022/05/11 01:55:23;;;;;;;;;;;13.70;99.90;;;;;;5051343;28;20007;-76
2022/05/11 01:57:50;;;;;;;;;;;13.70;99.90;;;;;;5051077;28;19929;-76
2022/05/11 02:00:18;;;;;;;;;;;13.80;99.90;;;;;;5052083;28;20341;-77
2022/05/11 02:02:43;;;;;;;;;;;13.80;99.90;;;;;;5052428;28;19932;-76
2022/05/11 02:07:53;;;;;;;;;;;13.70;99.90;;;;;;5051727;28;20309;-76
2022/05/11 02:10:20;;;;;;;;;;;13.70;99.90;;;;;;5051426;28;19921;-77
2022/05/11 02:12:46;;;;;;;;;;;13.70;99.90;;;;;;5052557;28;20017;-77
2022/05/11 02:15:13;;;;;;;;;;;13.80;99.90;;;;;;5051303;28;19968;-76
2022/05/11 02:17:40;;;;;;;;;;;13.80;99.90;;;;;;5052167;28;19973;-76
2022/05/11 02:20:06;;;;;;;;;;;13.80;99.90;;;;;;5051248;28;19925;-76
2022/05/11 02:22:32;;;;;;;;;;;13.80;99.90;;;;;;5050431;28;20016;-76
2022/05/11 02:24:58;;;;;;;;;;;13.80;99.90;;;;;;5051233;28;20021;-76
2022/05/11 02:27:23;;;;;;;;;;;13.80;99.90;;;;;;5051564;28;19951;-75
2022/05/11 02:29:49;;;;;;;;;;;13.80;99.90;;;;;;5049667;28;19920;-78
2022/05/11 02:32:14;;;;;;;;;;;13.70;99.90;;;;;;5049842;28;19921;-75
2022/05/11 02:37:26;;;;;;;;;;;13.70;99.90;;;;;;5051668;28;19932;-75
2022/05/11 02:39:51;;;;;;;;;;;13.70;99.90;;;;;;5050130;28;19982;-76
2022/05/11 02:42:18;;;;;;;;;;;13.70;99.90;;;;;;5040249;28;19931;-76
2022/05/11 02:44:45;;;;;;;;;;;13.80;99.90;;;;;;5048969;28;19940;-75
2022/05/11 02:47:11;;;;;;;;;;;13.80;99.90;;;;;;5050178;28;20390;-75
2022/05/11 02:49:37;;;;;;;;;;;13.80;99.90;;;;;;5050611;28;19956;-76
2022/05/11 02:52:04;;;;;;;;;;;13.80;99.90;;;;;;5059371;28;19921;-75
2022/05/11 02:54:30;;;;;;;;;;;13.80;99.90;;;;;;5051576;28;20031;-76
2022/05/11 02:56:55;;;;;;;;;;;13.70;99.90;;;;;;5050810;28;19932;-77
2022/05/11 02:59:21;;;;;;;;;;;13.70;99.90;;;;;;5051243;28;19959;-77
2022/05/11 03:01:49;;;;;;;;;;;13.80;99.90;;;;;;5049375;28;19925;-75
2022/05/11 03:04:15;;;;;;;;;;;13.80;99.90;;;;;;5051444;28;19928;-76
2022/05/11 03:06:42;;;;;;;;;;;13.80;99.90;;;;;;5050595;28;19920;-76
2022/05/11 03:09:09;;;;;;;;;;;13.80;99.90;;;;;;5050761;28;19935;-76
2022/05/11 03:11:34;;;;;;;;;;;13.80;99.90;;;;;;5034105;28;19974;-76
2022/05/11 03:14:00;;;;;;;;;;;13.80;99.90;;;;;;5051185;28;20378;-77
2022/05/11 03:16:25;;;;;;;;;;;13.80;99.90;;;;;;5047912;28;19942;-77
2022/05/11 03:18:51;;;;;;;;;;;13.80;99.90;;;;;;5050699;28;19959;-76
2022/05/11 03:21:17;;;;;;;;;;;13.90;99.90;;;;;;5050223;28;20011;-76
2022/05/11 03:23:42;;;;;;;;;;;13.90;99.90;;;;;;5051235;28;20460;-77
2022/05/11 03:26:11;;;;;;;;;;;13.90;99.90;;;;;;5050165;28;19920;-76
2022/05/11 03:28:36;;;;;;;;;;;13.90;99.90;;;;;;5050533;28;20017;-76
2022/05/11 03:31:02;;;;;;;;;;;13.90;99.90;;;;;;5049795;28;19961;-75
2022/05/11 03:36:12;;;;;;;;;;;13.90;99.90;;;;;;5048148;28;19927;-76
2022/05/11 03:38:38;;;;;;;;;;;13.90;99.90;;;;;;5049085;28;20363;-76
2022/05/11 03:41:03;;;;;;;;;;;13.90;99.90;;;;;;5046725;28;19921;-76
2022/05/11 03:43:30;;;;;;;;;;;13.90;99.90;;;;;;5042781;28;20341;-76
2022/05/11 03:45:56;;;;;;;;;;;13.90;99.90;;;;;;5049660;28;19925;-76
2022/05/11 03:48:21;;;;;;;;;;;14.00;99.90;;;;;;5049058;28;20306;-76
2022/05/11 03:50:47;;;;;;;;;;;14.00;99.90;;;;;;5049379;28;20309;-75
2022/05/11 03:53:13;;;;;;;;;;;14.00;99.90;;;;;;5050792;28;19920;-76
2022/05/11 03:55:39;;;;;;;;;;;14.00;99.90;;;;;;5033188;28;19920;-77
2022/05/11 03:58:04;;;;;;;;;;;14.00;99.90;;;;;;5050403;28;19924;-76
2022/05/11 04:00:32;;;;;;;;;;;14.00;99.90;;;;;;5049264;28;19979;-76
2022/05/11 04:02:58;;;;;;;;;;;14.00;99.90;;;;;;5050469;28;19935;-76
2022/05/11 04:05:24;;;;;;;;;;;14.00;99.90;;;;;;5048220;28;19935;-74
2022/05/11 04:07:50;;;;;;;;;;;14.00;99.90;;;;;;5050200;28;19925;-78
2022/05/11 04:10:16;;;;;;;;;;;14.00;99.90;;;;;;5049652;28;20483;-76
2022/05/11 04:12:42;;;;;;;;;;;14.00;99.90;;;;;;5051230;28;20395;-75
2022/05/11 04:15:08;;;;;;;;;;;14.10;99.90;;;;;;5049608;28;19931;-77
2022/05/11 04:17:35;;;;;;;;;;;14.10;99.90;;;;;;5050633;28;19921;-76
2022/05/11 04:20:01;;;;;;;;;;;14.10;99.90;;;;;;5048705;28;19929;-77
2022/05/11 04:22:27;;;;;;;;;;;14.10;99.90;;;;;;5033127;28;19974;-73
2022/05/11 04:24:52;;;;;;;;;;;14.10;99.90;;;;;;5050211;28;20311;-78
2022/05/11 04:27:18;;;;;;;;;;;14.10;99.90;;;;;;5050596;28;19925;-77
2022/05/11 04:29:44;;;;;;;;;;;14.10;99.90;;;;;;5051017;28;20386;-78
2022/05/11 04:32:10;;;;;;;;;;;14.10;99.90;;;;;;5050382;28;19932;-78
2022/05/11 04:34:40;;;;;;;;;;;14.10;99.90;;;;;;5051001;28;20386;-76
2022/05/11 04:37:06;;;;;;;;;;;14.20;99.90;;;;;;5048469;28;19925;-78
2022/05/11 04:39:31;;;;;;;;;;;14.20;99.90;;;;;;5050134;28;20306;-77
2022/05/11 04:41:57;;;;;;;;;;;14.20;99.90;;;;;;5050477;28;19925;-82
2022/05/11 04:44:23;;;;;;;;;;;14.20;99.90;;;;;;5048425;28;19928;-78
2022/05/11 04:46:49;;;;;;;;;;;14.20;99.90;;;;;;5052473;28;19925;-76
2022/05/11 04:49:23;;;;;;;;;;;14.20;99.90;;;;;;5052322;28;19925;-76
2022/05/11 04:51:51;;;;;;;;;;;14.20;99.90;;;;;;5052751;28;19920;-76
2022/05/11 04:54:17;;;;;;;;;;;14.20;99.90;;;;;;5053978;28;19931;-75
2022/05/11 04:56:43;;;;;;;;;;;14.20;99.90;;;;;;5051772;28;19920;-76
2022/05/11 04:59:09;;;;;;;;;;;14.20;99.90;;;;;;5053533;28;19975;-76
2022/05/11 05:01:35;;;;;;;;;;;14.20;99.90;;;;;;5053926;28;20433;-76
2022/05/11 05:04:01;;;;;;;;;;;14.20;99.90;;;;;;5054892;28;19921;-77
2022/05/11 05:06:28;;;;;;;;;;;14.20;99.90;;;;;;5053049;28;19928;-77
2022/05/11 05:08:55;;;;;;;;;;;14.20;99.90;;;;;;5034878;28;19925;-77
2022/05/11 05:11:21;;;;;;;;;;;14.20;99.90;;;;;;5053429;28;19925;-78
2022/05/11 05:13:47;;;;;;;;;;;14.30;99.90;;;;;;5036287;28;19931;-78
2022/05/11 05:16:12;;;;;;;;;;;14.30;99.90;;;;;;5036080;28;20012;-77
2022/05/11 05:18:38;;;;;;;;;;;14.30;99.90;;;;;;5052356;28;20019;-77
2022/05/11 05:21:03;;;;;;;;;;;14.40;99.90;;;;;;5051259;28;19942;-78
2022/05/11 05:23:29;;;;;;;;;;;14.40;99.90;;;;;;5052173;28;19975;-77
2022/05/11 05:25:56;;;;;;;;;;;14.40;99.90;;;;;;5052412;28;20456;-77
2022/05/11 05:31:09;;;;;;;;;;;14.50;99.90;;;;;;5051724;28;19921;-76
2022/05/11 05:33:35;;;;;;;;;;;14.50;99.90;;;;;;5069695;28;20452;-77
2022/05/11 05:36:01;;;;;;;;;;;14.60;99.90;;;;;;5051700;28;19921;-78
2022/05/11 05:38:27;;;;;;;;;;;14.60;99.90;;;;;;5052285;28;19966;-76
2022/05/11 05:40:54;;;;;;;;;;;14.60;99.90;;;;;;5034695;28;20383;-78
2022/05/11 05:43:21;;;;;;;;;;;14.70;99.90;;;;;;5047833;28;20574;-78
2022/05/11 05:45:47;;;;;;;;;;;14.70;99.90;;;;;;5046789;28;19928;-76
2022/05/11 05:48:13;;;;;;;;;;;14.80;99.90;;;;;;5052981;28;19932;-78
2022/05/11 05:50:39;;;;;;;;;;;14.80;99.90;;;;;;5050904;28;19928;-78
2022/05/11 05:53:04;;;;;;;;;;;14.80;99.90;;;;;;5055025;28;19928;-77
2022/05/11 05:55:30;;;;;;;;;;;14.80;99.90;;;;;;5034175;28;20011;-77
2022/05/11 05:57:56;;;;;;;;;;;14.80;99.90;;;;;;5052219;28;19925;-79
2022/05/11 06:00:23;;;;;;;;;;;14.80;99.90;;;;;;5053068;28;19921;-77
2022/05/11 06:02:49;;;;;;;;;;;14.90;99.90;;;;;;5052288;28;20333;-77
2022/05/11 06:05:15;;;;;;;;;;;14.90;99.90;;;;;;5052211;28;20011;-75
2022/05/11 06:07:41;;;;;;;;;;;14.90;99.90;;;;;;5036475;28;19925;-77
2022/05/11 06:10:07;;;;;;;;;;;14.90;99.90;;;;;;5053040;28;19936;-76
2022/05/11 06:12:33;;;;;;;;;;;15.00;99.90;;;;;;5050934;28;19924;-76
2022/05/11 06:14:58;;;;;;;;;;;15.00;99.90;;;;;;5053100;28;20386;-74
2022/05/11 06:17:25;;;;;;;;;;;15.00;99.90;;;;;;5052945;28;19963;-77
2022/05/11 06:19:51;;;;;;;;;;;15.10;99.90;;;;;;5052717;28;20020;-76
2022/05/11 06:22:17;;;;;;;;;;;15.10;99.90;;;;;;5037133;28;19971;-76
2022/05/11 06:24:43;;;;;;;;;;;15.20;99.90;;;;;;5051606;28;19932;-77
2022/05/11 06:27:15;;;;;;;;;;;15.30;99.90;;;;;;5052077;28;20035;-78
2022/05/11 06:29:40;;;;;;;;;;;15.30;99.90;;;;;;5051750;28;19921;-77
2022/05/11 06:32:06;;;;;;;;;;;15.40;99.90;;;;;;5053355;28;20404;-75
2022/05/11 06:34:33;;;;;;;;;;;15.40;99.90;;;;;;5051843;28;19935;-77
2022/05/11 06:36:59;;;;;;;;;;;15.50;99.90;;;;;;5051634;28;20310;-78
2022/05/11 06:39:24;;;;;;;;;;;15.50;99.90;;;;;;5049903;28;19939;-75
2022/05/11 06:41:50;;;;;;;;;;;15.60;99.90;;;;;;5068241;28;19983;-77
2022/05/11 06:44:16;;;;;;;;;;;15.70;99.90;;;;;;5049337;28;19927;-77
2022/05/11 06:46:41;;;;;;;;;;;15.80;99.90;;;;;;5049341;28;19920;-78
2022/05/11 06:49:07;;;;;;;;;;;15.90;99.90;;;;;;5050685;28;20369;-79
2022/05/11 06:51:34;;;;;;;;;;;15.90;99.90;;;;;;5049137;28;20482;-74
2022/05/11 06:59:33;;;;;;;;;;;16.10;99.90;;;;;;5049903;28;19925;-76
2022/05/11 07:01:59;;;;;;;;;;;16.10;99.90;;;;;;5052080;28;19964;-74
2022/05/11 07:04:25;;;;;;;;;;;16.20;99.90;;;;;;5050404;28;19920;-77
2022/05/11 07:06:52;;;;;;;;;;;16.20;99.90;;;;;;5048891;28;19921;-77
2022/05/11 07:09:22;;;;;;;;;;;16.30;99.90;;;;;;5050770;28;19960;-76
2022/05/11 07:14:32;;;;;;;;;;;16.20;99.90;;;;;;5048680;28;20391;-77
2022/05/11 07:16:58;;;;;;;;;;;16.20;99.90;;;;;;5049855;28;19935;-76
2022/05/11 07:19:25;;;;;;;;;;;16.30;99.90;;;;;;5050131;28;20379;-76
2022/05/11 07:21:50;;;;;;;;;;;16.30;99.90;;;;;;5051226;28;19960;-78
2022/05/11 07:24:17;;;;;;;;;;;16.40;99.90;;;;;;5050694;28;20354;-81
2022/05/11 07:26:43;;;;;;;;;;;16.50;99.90;;;;;;5045166;28;20015;-77
2022/05/11 07:29:09;;;;;;;;;;;16.50;99.90;;;;;;5047412;28;19993;-79
2022/05/11 07:31:34;;;;;;;;;;;16.50;99.90;;;;;;5049753;28;20367;-77
2022/05/11 07:34:00;;;;;;;;;;;16.60;99.90;;;;;;5047950;28;19932;-76
2022/05/11 07:36:26;;;;;;;;;;;16.70;99.90;;;;;;5030891;28;19974;-77
2022/05/11 07:38:52;;;;;;;;;;;16.70;99.90;;;;;;5047428;28;19935;-76
2022/05/11 07:41:19;;;;;;;;;;;16.70;99.90;;;;;;5029164;28;20365;-78
2022/05/11 07:43:44;;;;;;;;;;;16.70;99.90;;;;;;5045871;28;19929;-77
2022/05/11 07:46:10;;;;;;;;;;;16.80;99.90;;;;;;5016815;28;20023;-79
2022/05/11 07:48:36;;;;;;;;;;;16.90;99.90;;;;;;5050230;28;19932;-77
2022/05/11 07:51:01;;;;;;;;;;;17.10;99.90;;;;;;5047821;28;20482;-78
2022/05/11 07:53:27;;;;;;;;;;;17.30;99.90;;;;;;5048124;28;19924;-78
2022/05/11 08:01:23;;;;;;;;;;;17.30;99.90;;;;;;5048148;28;19955;-80
2022/05/11 08:03:49;;;;;;;;;;;17.30;99.90;;;;;;5048968;28;20413;-77
2022/05/11 08:06:16;;;;;;;;;;;17.30;99.90;;;;;;5046779;28;20394;-77
2022/05/11 08:08:42;;;;;;;;;;;17.30;99.90;;;;;;5048348;28;20020;-77
2022/05/11 08:11:07;;;;;;;;;;;17.30;99.90;;;;;;5030830;28;20637;-81
2022/05/11 08:13:34;;;;;;;;;;;17.30;99.90;;;;;;5030356;28;19960;-78
2022/05/11 08:16:00;;;;;;;;;;;17.40;99.90;;;;;;5048793;28;19921;-79
2022/05/11 08:18:26;;;;;;;;;;;17.40;99.90;;;;;;5051808;28;20368;-78
2022/05/11 08:20:52;;;;;;;;;;;17.60;99.90;;;;;;5054258;28;20007;-79
2022/05/11 08:23:17;;;;;;;;;;;17.70;99.90;;;;;;5052771;28;20036;-77
2022/05/11 08:25:44;;;;;;;;;;;17.80;99.90;;;;;;5051449;28;19952;-77
2022/05/11 08:28:10;;;;;;;;;;;17.90;99.90;;;;;;5053400;28;19948;-78
2022/05/11 08:33:27;;;;;;;;;;;18.30;99.90;;;;;;5054003;28;19924;-78
2022/05/11 08:35:53;;;;;;;;;;;18.40;99.90;;;;;;5054473;28;20016;-79
2022/05/11 08:38:20;;;;;;;;;;;18.50;99.90;;;;;;5052387;28;20349;-77
2022/05/11 08:40:48;;;;;;;;;;;18.50;99.20;;;;;;5053519;28;19974;-79
2022/05/11 08:43:15;;;;;;;;;;;18.60;99.20;;;;;;5052541;28;19925;-76
2022/05/11 08:45:44;;;;;;;;;;;18.60;98.30;;;;;;5053982;28;19967;-80
2022/05/11 08:48:16;;;;;;;;;;;18.70;97.90;;;;;;5040314;28;20442;-77
2022/05/11 08:50:44;;;;;;;;;;;18.80;98.30;;;;;;5052561;28;19920;-78
2022/05/11 08:53:19;;;;;;;;;;;18.90;98.40;;;;;;5053988;28;19975;-77
2022/05/11 08:55:47;;;;;;;;;;;19.00;98.40;;;;;;5053982;28;19921;-78
2022/05/11 08:58:22;;;;;;;;;;;19.20;98.70;;;;;;5035519;28;19925;-78
2022/05/11 09:00:48;;;;;;;;;;;19.50;98.40;;;;;;5052821;28;19921;-78
2022/05/11 09:03:17;;;;;;;;;;;19.70;96.30;;;;;;5053805;28;19925;-78
2022/05/11 09:05:44;;;;;;;;;;;19.80;95.80;;;;;;5053323;28;19983;-77
2022/05/11 09:08:10;;;;;;;;;;;19.80;94.90;;;;;;5069580;28;19935;-77
2022/05/11 09:10:37;;;;;;;;;;;19.90;95.10;;;;;;5053638;28;20007;-79
2022/05/11 09:13:04;;;;;;;;;;;20.00;94.40;;;;;;5036300;28;20019;-79
2022/05/11 09:15:49;;;;;;;;;;;20.00;94.90;;;;;;5051546;28;19937;-79
2022/05/11 09:18:15;;;;;;;;;;;19.90;94.30;;;;;;5036306;28;19925;-77
2022/05/11 09:20:43;;;;;;;;;;;19.90;94.90;;;;;;5053217;28;19963;-79
2022/05/11 09:23:10;;;;;;;;;;;20.10;94.40;;;;;;5055169;28;20294;-77
2022/05/11 09:25:37;;;;;;;;;;;20.20;94.90;;;;;;5052239;28;19925;-76
2022/05/11 09:28:13;;;;;;;;;;;20.20;94.40;;;;;;5053382;28;20024;-77
2022/05/11 09:30:41;;;;;;;;;;;20.20;94.00;;;;;;5052554;28;19927;-79
2022/05/11 09:33:13;;;;;;;;;;;20.30;94.10;;;;;;5053479;28;20370;-78
2022/05/11 09:35:40;;;;;;;;;;;20.30;95.10;;;;;;5052879;28;19974;-77
2022/05/11 09:38:07;;;;;;;;;;;20.60;94.50;;;;;;5053139;28;19960;-78
2022/05/11 09:40:50;;;;;;;;;;;20.90;92.80;;;;;;5052296;28;19979;-80
2022/05/11 09:43:25;;;;;;;;;;;21.30;91.90;;;;;;5049649;28;20027;-77
2022/05/11 09:45:51;;;;;;;;;;;21.20;91.30;;;;;;5053142;28;20411;-81
2022/05/11 09:48:21;;;;;;;;;;;21.60;91.40;;;;;;5042698;28;19968;-80
2022/05/11 09:50:48;;;;;;;;;;;21.90;90.60;;;;;;5051906;28;19971;-79
2022/05/11 09:53:22;;;;;;;;;;;21.70;89.70;;;;;;5051930;28;20386;-77
2022/05/11 09:55:50;;;;;;;;;;;21.40;89.30;;;;;;5036020;28;20000;-79
2022/05/11 09:58:25;;;;;;;;;;;21.80;87.50;;;;;;5054518;28;20302;-76
2022/05/11 10:00:51;;;;;;;;;;;22.10;87.40;;;;;;5051379;28;19924;-77
2022/05/11 10:03:25;;;;;;;;;;;22.40;86.90;;;;;;5052488;28;20279;-78
2022/05/11 10:05:51;;;;;;;;;;;22.20;85.60;;;;;;5035840;28;19921;-78
2022/05/11 10:08:19;;;;;;;;;;;21.90;87.00;;;;;;5051959;28;20400;-78
2022/05/11 10:10:49;;;;;;;;;;;22.10;85.90;;;;;;5052667;28;20387;-80
2022/05/11 10:13:17;;;;;;;;;;;22.30;86.40;;;;;;5051968;28;19921;-78
2022/05/11 10:24:11;;;;;;;;;;;23.00;78.00;;;;;;5049820;28;19995;-78
2022/05/11 10:26:40;;;;;;;;;;;22.70;79.50;;;;;;5052554;28;20282;-78
2022/05/11 10:29:11;;;;;;;;;;;22.50;81.70;;;;;;5051998;28;19960;-79
2022/05/11 10:31:42;;;;;;;;;;;22.70;81.70;;;;;;5051677;28;20007;-79
2022/05/11 10:34:12;;;;;;;;;;;23.30;81.00;;;;;;5052814;28;20020;-81
2022/05/11 10:36:40;;;;;;;;;;;23.80;79.50;;;;;;5050557;28;19929;-78
2022/05/11 10:39:09;;;;;;;;;;;24.00;79.40;;;;;;5049572;28;20002;-80
2022/05/11 10:41:38;;;;;;;;;;;24.00;76.00;;;;;;5049525;28;19971;-79
2022/05/11 10:44:07;;;;;;;;;;;24.10;78.80;;;;;;5050975;28;20350;-79
2022/05/11 10:46:41;;;;;;;;;;;24.50;75.90;;;;;;5047194;28;19960;-78
2022/05/11 10:49:22;;;;;;;;;;;24.50;77.50;;;;;;5045778;28;19925;-78
2022/05/11 10:51:52;;;;;;;;;;;24.70;75.60;;;;;;5028923;28;19921;-77
2022/05/11 10:54:21;;;;;;;;;;;24.80;74.20;;;;;;5031417;28;19972;-79
2022/05/11 10:56:50;;;;;;;;;;;24.90;69.60;;;;;;5040501;28;20398;-77
2022/05/11 10:59:24;;;;;;;;;;;24.80;71.50;;;;;;5050223;28;19921;-81
2022/05/11 11:01:55;;;;;;;;;;;24.80;72.30;;;;;;5050742;28;19928;-80
2022/05/11 11:04:27;;;;;;;;;;;24.80;74.10;;;;;;5050717;28;20374;-78
2022/05/11 11:07:14;;;;;;;;;;;24.90;74.80;;;;;;5050943;28;19921;-80
2022/05/11 11:09:45;;;;;;;;;;;25.00;71.00;;;;;;5033367;28;20352;-78
2022/05/11 11:12:20;;;;;;;;;;;25.10;70.90;;;;;;5050889;28;19927;-79
2022/05/11 11:14:50;;;;;;;;;;;25.20;70.70;;;;;;5052968;28;19921;-79
2022/05/11 11:17:19;;;;;;;;;;;25.60;71.70;;;;;;5053027;28;20353;-80
2022/05/11 11:19:47;;;;;;;;;;;25.70;68.70;;;;;;5051920;28;19951;-79
2022/05/11 11:22:12;;;;;;;;;;;25.20;66.60;;;;;;5052693;28;20601;-78
2022/05/11 11:24:42;;;;;;;;;;;25.00;69.60;;;;;;5054362;28;19920;-79
2022/05/11 11:27:08;;;;;;;;;;;25.00;67.90;;;;;;5036753;28;19921;-78
2022/05/11 11:29:35;;;;;;;;;;;24.80;68.60;;;;;;5052401;28;19931;-78
2022/05/11 11:32:03;;;;;;;;;;;24.70;67.30;;;;;;5020637;28;19924;-79
2022/05/11 11:34:31;;;;;;;;;;;24.60;68.30;;;;;;5052400;28;19925;-78
2022/05/11 11:36:57;;;;;;;;;;;24.60;69.00;;;;;;5052345;28;19932;-78
2022/05/11 11:39:42;;;;;;;;;;;24.80;70.30;;;;;;5051806;28;19921;-78
2022/05/11 11:42:07;;;;;;;;;;;25.10;70.30;;;;;;5052629;28;19928;-76
2022/05/11 11:44:37;;;;;;;;;;;25.30;66.90;;;;;;5054115;28;19929;-77
2022/05/11 11:47:18;;;;;;;;;;;25.10;66.80;;;;;;5051688;28;20334;-78
2022/05/11 11:49:45;;;;;;;;;;;25.10;67.70;;;;;;5043953;28;19933;-80
2022/05/11 11:52:31;;;;;;;;;;;25.30;68.60;;;;;;5042248;28;19931;-79
2022/05/11 11:54:56;;;;;;;;;;;25.30;66.00;;;;;;5049766;28;19921;-78
2022/05/11 11:57:27;;;;;;;;;;;25.20;65.00;;;;;;5047338;28;19928;-79
2022/05/11 11:59:54;;;;;;;;;;;25.10;65.00;;;;;;5051840;28;19921;-78
2022/05/11 12:02:23;;;;;;;;;;;24.90;66.30;;;;;;5052141;28;19971;-80
2022/05/11 12:04:58;;;;;;;;;;;24.80;66.40;;;;;;5049041;28;19921;-79
2022/05/11 12:15:42;;;;;;;;;;;25.30;66.90;;;;;;5051495;28;19924;-78
2022/05/11 12:18:21;;;;;;;;;;;25.50;67.30;;;;;;5053479;28;19925;-81
2022/05/11 12:20:48;;;;;;;;;;;25.80;64.10;;;;;;5052124;28;19921;-78
2022/05/11 12:23:18;;;;;;;;;;;25.50;62.20;;;;;;5042221;28;20008;-78
2022/05/11 12:25:49;;;;;;;;;;;25.30;65.20;;;;;;5051336;28;19921;-79
2022/05/11 12:28:20;;;;;;;;;;;25.10;65.00;;;;;;5036453;28;19925;-77
2022/05/11 12:30:47;;;;;;;;;;;25.10;64.30;;;;;;5048366;28;19925;-82
2022/05/11 12:33:19;;;;;;;;;;;24.90;62.50;;;;;;5050354;28;19920;-78
2022/05/11 12:35:45;;;;;;;;;;;24.90;64.50;;;;;;5051776;28;19921;-78
2022/05/11 12:38:13;;;;;;;;;;;24.90;62.30;;;;;;5049508;28;20430;-78
2022/05/11 12:40:40;;;;;;;;;;;24.90;66.60;;;;;;5051268;28;19931;-78
2022/05/11 12:43:08;;;;;;;;;;;24.80;64.40;;;;;;5042402;28;19935;-77
2022/05/11 12:45:35;;;;;;;;;;;24.80;62.70;;;;;;5049674;28;19974;-79
2022/05/11 12:48:02;;;;;;;;;;;24.60;62.00;;;;;;5034851;28;20023;-76
2022/05/11 12:50:28;;;;;;;;;;;24.60;64.30;;;;;;5050428;28;19963;-77
2022/05/11 12:53:01;;;;;;;;;;;24.80;63.60;;;;;;5049020;28;19920;-79
2022/05/11 12:55:32;;;;;;;;;;;25.00;64.90;;;;;;5047129;28;19921;-79
2022/05/11 12:57:58;;;;;;;;;;;25.20;63.50;;;;;;5017491;28;20395;-79
2022/05/11 13:00:24;;;;;;;;;;;25.00;64.50;;;;;;5051904;28;19966;-79
2022/05/11 13:02:51;;;;;;;;;;;24.80;63.60;;;;;;5051119;28;19971;-80
2022/05/11 13:05:18;;;;;;;;;;;24.40;65.70;;;;;;5070266;28;19920;-78
2022/05/11 13:07:48;;;;;;;;;;;24.50;67.00;;;;;;5055062;28;19925;-77
2022/05/11 13:10:16;;;;;;;;;;;24.50;66.40;;;;;;5053521;28;19964;-83
2022/05/11 13:12:44;;;;;;;;;;;24.70;66.30;;;;;;5054178;28;19931;-78
2022/05/11 13:15:10;;;;;;;;;;;24.80;66.30;;;;;;5054721;28;20299;-81
2022/05/11 13:17:38;;;;;;;;;;;24.80;64.20;;;;;;5070520;28;19927;-79
2022/05/11 13:20:06;;;;;;;;;;;24.80;63.80;;;;;;5052999;28;19943;-80
2022/05/11 13:22:32;;;;;;;;;;;24.90;63.70;;;;;;5054762;28;19920;-78
2022/05/11 13:24:59;;;;;;;;;;;24.80;65.50;;;;;;5054063;28;20383;-79
2022/05/11 13:27:37;;;;;;;;;;;24.60;64.60;;;;;;5052760;28;19992;-79
2022/05/11 13:30:06;;;;;;;;;;;24.60;66.60;;;;;;5052610;28;20405;-79
2022/05/11 13:32:35;;;;;;;;;;;24.80;68.00;;;;;;5053049;28;19928;-78
2022/05/11 13:35:13;;;;;;;;;;;25.00;65.40;;;;;;5054029;28;19921;-78
2022/05/11 13:37:39;;;;;;;;;;;24.80;64.10;;;;;;5038369;28;19939;-80
2022/05/11 13:40:05;;;;;;;;;;;24.50;65.50;;;;;;5048555;28;19924;-80
2022/05/11 13:42:31;;;;;;;;;;;24.40;67.80;;;;;;5054152;28;19921;-77
2022/05/11 13:45:00;;;;;;;;;;;24.60;67.20;;;;;;5052580;28;19920;-81
2022/05/11 13:50:14;;;;;;;;;;;24.90;65.80;;;;;;5052611;28;20041;-81
2022/05/11 13:52:49;;;;;;;;;;;24.80;64.90;;;;;;5052798;28;19921;-80
2022/05/11 13:55:23;;;;;;;;;;;24.80;66.00;;;;;;5053654;28;19920;-80
2022/05/11 13:57:48;;;;;;;;;;;24.80;65.60;;;;;;5048585;28;19925;-80
2022/05/11 14:00:15;;;;;;;;;;;24.40;66.70;;;;;;5051987;28;19983;-79
2022/05/11 14:02:46;;;;;;;;;;;24.10;68.20;;;;;;5054246;28;20444;-79
2022/05/11 14:05:12;;;;;;;;;;;23.90;66.70;;;;;;5052844;28;19928;-78
2022/05/11 14:09:55;;;;;;;11.30;2.38;;;24.00;67.60;;;;;;5167280;27;20321;-76
2022/05/11 14:12:23;;;;;;;13.43;2.33;;;23.90;66.40;;;;;;5131838;27;20043;-78
2022/05/11 14:14:50;;;;;;;11.25;2.90;;;23.90;66.70;;;;;;5134601;27;20099;-77
2022/05/11 14:17:21;;;;;;;17.33;2.72;;;23.70;67.50;;;;;;5150790;27;20129;-76
2022/05/11 14:19:48;;;;;;;14.05;3.47;;;23.50;69.60;;;;;;5115501;27;20066;-77
2022/05/11 14:22:14;;;;;;;16.17;3.07;;;23.30;70.00;;;;;;5136752;27;20070;-78
2022/05/11 14:24:40;;;;;;;11.88;2.40;;;23.00;71.60;;;;;;5133339;27;20038;-78
2022/05/11 14:27:08;;;;;;;8.73;2.58;;;23.00;72.10;;;;;;5116162;27;20069;-80
2022/05/11 14:29:33;;;;;;;18.80;3.40;;;23.10;71.60;;;;;;5147068;27;20066;-77
2022/05/11 14:31:59;;;;;;;15.43;3.00;;;22.90;72.30;;;;;;5147229;27;20070;-78
2022/05/11 14:34:27;;;;;;;12.63;2.72;;;22.80;73.20;;;;;;5138223;27;20043;-77
2022/05/11 14:36:53;;;;;;;8.67;2.60;;;22.80;73.60;;;;;;5140238;27;20378;-79
2022/05/11 14:39:24;;;;;;;13.67;2.50;;;22.70;73.30;;;;;;5126448;27;20058;-78
2022/05/11 14:41:50;;;;;;;12.10;2.57;;;22.80;72.20;;;;;;5131843;27;20134;-78
2022/05/11 14:44:18;;;;;;;13.73;2.50;;;22.70;72.00;;;;;;5144827;27;20069;-80
2022/05/11 14:46:44;;;;;;;19.07;2.93;;;22.60;70.30;;;;;;5148657;27;20043;-78
2022/05/11 14:49:10;;;;;;;15.80;2.50;;;22.30;71.90;;;;;;5110946;27;20039;-79
2022/05/11 14:51:41;;;;;;;17.17;2.83;;;22.10;73.90;;;;;;5143954;27;20395;-79
2022/05/11 14:54:10;;;;;;;9.83;2.43;;;21.90;73.80;;;;;;5130022;27;20137;-79
2022/05/11 14:56:36;;;;;;;11.23;2.30;;;21.80;73.00;;;;;;5120842;27;20047;-79
2022/05/11 15:01:59;;;;;;;16.20;3.27;;;21.80;73.90;;;;;;5120448;27;20046;-76
2022/05/11 15:04:31;;;;;;;12.20;2.67;;;21.80;73.30;;;;;;5113969;27;20126;-79